Time;durP1;ratioP1;P1;durP2;ratioP2;P2;SDS_P1;SDS_P2;PMS_P1;PMS_P2;Temp;Humidity;BMP_temperature;BMP_pressure;BME280_temperature;BME280_humidity;BME280_pressure;Samples;Min_cycle;Max_cycle;Signal;HPM_P1;HPM_P2
2022/07/06 00:02:01;;;;;;;10.77;4.35;;;12.60;99.90;;;;;;4994575;28;20046;-77
2022/07/06 00:04:27;;;;;;;10.52;3.75;;;12.60;99.90;;;;;;4996458;28;20126;-77
2022/07/06 00:06:52;;;;;;;7.47;3.58;;;12.60;99.90;;;;;;4978257;28;20058;-76
2022/07/06 00:09:18;;;;;;;21.38;4.00;;;12.60;99.90;;;;;;4994457;28;20058;-77
2022/07/06 00:11:44;;;;;;;10.00;3.40;;;12.60;99.90;;;;;;4995751;28;20148;-75
2022/07/06 00:14:10;;;;;;;14.35;3.60;;;12.70;99.90;;;;;;4978513;28;20056;-77
2022/07/06 00:16:37;;;;;;;9.18;3.75;;;12.70;99.90;;;;;;4997439;28;20133;-77
2022/07/06 00:19:02;;;;;;;;;;;12.70;99.90;;;;;;4997734;28;20046;-80
2022/07/06 00:21:28;;;;;;;9.33;2.93;;;12.80;99.90;;;;;;4995274;28;19972;-76
2022/07/06 00:23:54;;;;;;;14.75;3.85;;;12.80;99.90;;;;;;4978552;28;20065;-77
2022/07/06 00:26:20;;;;;;;11.63;2.97;;;12.90;99.90;;;;;;4996003;28;20498;-77
2022/07/06 00:28:46;;;;;;;13.25;3.10;;;13.00;99.90;;;;;;4997596;28;20370;-76
2022/07/06 00:31:11;;;;;;;13.23;3.38;;;13.00;99.90;;;;;;4997428;28;20050;-75
2022/07/06 00:33:37;;;;;;;9.00;3.55;;;13.10;99.90;;;;;;4997169;28;20102;-76
2022/07/06 00:36:03;;;;;;;11.02;3.42;;;13.10;99.90;;;;;;4997477;28;20514;-77
2022/07/06 00:38:29;;;;;;;13.48;3.97;;;13.20;99.90;;;;;;4996699;28;20048;-77
2022/07/06 00:40:55;;;;;;;13.82;3.30;;;13.20;99.90;;;;;;4996791;28;20106;-76
2022/07/06 00:43:22;;;;;;;9.77;2.90;;;13.20;99.90;;;;;;4997186;28;20054;-77
2022/07/06 00:45:48;;;;;;;12.23;2.90;;;13.30;99.90;;;;;;5010501;28;20050;-76
2022/07/06 00:48:13;;;;;;;11.48;2.72;;;13.40;99.90;;;;;;4999071;28;20064;-77
2022/07/06 00:50:39;;;;;;;9.30;2.85;;;13.40;99.90;;;;;;5015661;28;20050;-78
2022/07/06 00:53:08;;;;;;;6.60;2.40;;;13.40;99.90;;;;;;4965487;28;20045;-75
2022/07/06 00:55:39;;;;;;;12.98;2.80;;;13.40;99.90;;;;;;4982412;28;20086;-75
2022/07/06 00:58:05;;;;;;;10.52;2.15;;;13.40;99.90;;;;;;5015852;28;20057;-76
2022/07/06 01:00:32;;;;;;;6.00;1.97;;;13.50;99.90;;;;;;5015354;28;20045;-77
2022/07/06 01:02:58;;;;;;;6.22;2.15;;;13.50;99.90;;;;;;4998053;28;20042;-77
2022/07/06 01:05:24;;;;;;;9.52;2.20;;;13.50;99.90;;;;;;5014502;28;20145;-77
2022/07/06 01:07:52;;;;;;;7.60;2.20;;;13.50;99.90;;;;;;5014991;28;20449;-77
2022/07/06 01:10:25;;;;;;;6.97;2.28;;;13.60;99.90;;;;;;5014456;28;20052;-76
2022/07/06 01:12:50;;;;;;;;;;;13.60;99.90;;;;;;5014884;28;20069;-76
2022/07/06 01:15:22;;;;;;;10.43;2.33;;;13.60;99.90;;;;;;4997187;28;19972;-76
2022/07/06 01:17:49;;;;;;;10.63;2.42;;;13.60;99.90;;;;;;5014837;28;20133;-77
2022/07/06 01:20:15;;;;;;;10.27;2.13;;;13.70;99.90;;;;;;5013886;28;20085;-75
2022/07/06 01:22:41;;;;;;;7.43;2.10;;;13.60;99.90;;;;;;5014038;28;20045;-76
2022/07/06 01:25:08;;;;;;;11.37;2.37;;;13.70;99.90;;;;;;5014024;28;20075;-75
2022/07/06 01:27:38;;;;;;;13.18;2.33;;;13.60;99.90;;;;;;5014019;28;20365;-76
2022/07/06 01:30:07;;;;;;;9.48;2.40;;;13.70;99.90;;;;;;5014527;28;20422;-75
2022/07/06 01:32:34;;;;;;;8.30;1.98;;;13.70;99.90;;;;;;4980108;28;20390;-76
2022/07/06 01:35:01;;;;;;;8.77;2.58;;;13.70;99.90;;;;;;5013643;28;20057;-75
2022/07/06 01:37:27;;;;;;;11.00;2.63;;;13.70;99.90;;;;;;4995926;28;20050;-76
2022/07/06 01:39:52;;;;;;;9.00;2.30;;;13.70;99.90;;;;;;5013889;28;20072;-76
2022/07/06 01:42:18;;;;;;;7.82;2.15;;;13.70;99.90;;;;;;4996172;28;20461;-77
2022/07/06 01:44:44;;;;;;;8.43;2.10;;;13.80;99.90;;;;;;5013639;28;20151;-77
2022/07/06 01:47:11;;;;;;;10.40;2.20;;;13.70;99.90;;;;;;5013578;28;20058;-76
2022/07/06 01:49:37;;;;;;;11.52;2.33;;;13.80;99.90;;;;;;5013517;28;20050;-75
2022/07/06 01:52:03;;;;;;;10.70;2.50;;;13.70;99.90;;;;;;4995784;28;20046;-77
2022/07/06 01:54:29;;;;;;;7.18;1.75;;;13.70;99.90;;;;;;4979782;28;20105;-75
2022/07/06 01:56:54;;;;;;;8.32;2.28;;;13.70;99.90;;;;;;4995857;28;20112;-76
2022/07/06 01:59:20;;;;;;;10.15;2.40;;;13.70;99.90;;;;;;5014163;28;20072;-76
2022/07/06 02:01:46;;;;;;;8.27;2.38;;;13.60;99.90;;;;;;5013076;28;20053;-76
2022/07/06 02:04:12;;;;;;;7.45;1.85;;;13.60;99.90;;;;;;5013298;28;20049;-75
2022/07/06 02:06:37;;;;;;;11.43;2.13;;;13.70;99.90;;;;;;4979772;28;20133;-77
2022/07/06 02:09:03;;;;;;;7.93;2.10;;;13.60;99.90;;;;;;4979835;28;20054;-77
2022/07/06 02:11:29;;;;;;;7.43;2.20;;;13.60;99.90;;;;;;5013370;28;20045;-77
2022/07/06 02:13:55;;;;;;;8.88;2.08;;;13.60;99.90;;;;;;4979753;28;20042;-77
2022/07/06 02:16:21;;;;;;;9.93;1.80;;;13.60;99.90;;;;;;4996306;28;20053;-78
2022/07/06 02:18:46;;;;;;;9.88;1.83;;;13.60;99.90;;;;;;4980114;28;20097;-76
2022/07/06 02:21:12;;;;;;;7.88;2.10;;;13.70;99.90;;;;;;5013611;28;20474;-76
2022/07/06 02:23:38;;;;;;;6.53;1.63;;;13.70;99.90;;;;;;4996142;28;20073;-77
2022/07/06 02:26:04;;;;;;;9.00;1.50;;;13.60;99.90;;;;;;5013067;28;20054;-76
2022/07/06 02:28:29;;;;;;;5.28;1.65;;;13.60;99.90;;;;;;4994539;28;20124;-75
2022/07/06 02:30:55;;;;;;;5.95;2.08;;;13.60;99.90;;;;;;4978882;28;20052;-77
2022/07/06 02:33:21;;;;;;;9.85;2.28;;;13.60;99.90;;;;;;5012424;28;20065;-78
2022/07/06 02:35:47;;;;;;;7.18;2.28;;;13.60;99.90;;;;;;5012198;28;20054;-81
2022/07/06 02:38:13;;;;;;;9.52;2.88;;;13.60;99.90;;;;;;5012402;28;20437;-79
2022/07/06 02:40:39;;;;;;;11.20;2.35;;;13.50;99.90;;;;;;4978604;28;20129;-80
2022/07/06 02:43:05;;;;;;;8.07;2.63;;;13.50;99.90;;;;;;4979580;28;20048;-79
2022/07/06 02:45:31;;;;;;;11.02;2.65;;;13.50;99.90;;;;;;5012684;28;20458;-81
2022/07/06 02:47:57;;;;;;;7.57;2.13;;;13.50;99.90;;;;;;4979472;28;20060;-80
2022/07/06 02:50:24;;;;;;;11.40;2.47;;;13.50;99.90;;;;;;5012573;28;20054;-80
2022/07/06 02:52:50;;;;;;;10.30;2.58;;;13.50;99.90;;;;;;4995466;28;20573;-80
2022/07/06 02:55:16;;;;;;;13.63;2.90;;;13.50;99.90;;;;;;5013048;28;20042;-80
2022/07/06 02:57:41;;;;;;;11.40;2.92;;;13.50;99.90;;;;;;4994884;28;20353;-80
2022/07/06 03:00:09;;;;;;;10.65;2.70;;;13.50;99.90;;;;;;4978776;28;20108;-79
2022/07/06 03:02:35;;;;;;;7.15;2.38;;;13.50;99.90;;;;;;5012238;28;20052;-79
2022/07/06 03:05:01;;;;;;;8.27;2.40;;;13.50;99.90;;;;;;4979019;28;20049;-79
2022/07/06 03:07:26;;;;;;;9.52;2.72;;;13.50;99.90;;;;;;4994909;28;20172;-80
2022/07/06 03:09:52;;;;;;;12.07;3.10;;;13.50;99.90;;;;;;4994921;28;20049;-82
2022/07/06 03:12:18;;;;;;;11.68;2.72;;;13.40;99.90;;;;;;5012246;28;20053;-80
2022/07/06 03:14:44;;;;;;;8.13;3.00;;;13.40;99.90;;;;;;5012436;28;20500;-80
2022/07/06 03:17:10;;;;;;;11.98;2.90;;;13.40;99.90;;;;;;5014213;28;20046;-80
2022/07/06 03:19:36;;;;;;;11.55;2.90;;;13.40;99.90;;;;;;4982886;28;20350;-82
2022/07/06 03:22:02;;;;;;;8.10;3.20;;;13.40;99.90;;;;;;4998380;28;20057;-81
2022/07/06 03:24:28;;;;;;;11.15;2.97;;;13.40;99.90;;;;;;4998521;28;20147;-81
2022/07/06 03:26:54;;;;;;;9.20;2.65;;;13.40;99.90;;;;;;5015534;28;20394;-80
2022/07/06 03:29:20;;;;;;;11.98;3.50;;;13.50;99.90;;;;;;4981879;28;20041;-79
2022/07/06 03:31:46;;;;;;;7.63;3.15;;;13.50;99.90;;;;;;4998451;28;20105;-81
2022/07/06 03:34:12;;;;;;;11.25;2.95;;;13.40;99.90;;;;;;5015582;28;20379;-81
2022/07/06 03:36:38;;;;;;;11.18;3.45;;;13.40;99.90;;;;;;4981819;28;20107;-80
2022/07/06 03:39:03;;;;;;;10.20;3.30;;;13.50;99.90;;;;;;4981676;28;20050;-80
2022/07/06 03:41:29;;;;;;;8.48;3.30;;;13.40;99.90;;;;;;4997825;28;20049;-80
2022/07/06 03:43:55;;;;;;;12.30;3.05;;;13.50;99.90;;;;;;4982379;28;20046;-79
2022/07/06 03:46:20;;;;;;;10.65;3.28;;;13.40;99.90;;;;;;4993968;28;20054;-80
2022/07/06 03:48:46;;;;;;;11.48;2.53;;;13.50;99.90;;;;;;4996023;28;20121;-80
2022/07/06 03:51:12;;;;;;;7.88;3.03;;;13.50;99.90;;;;;;4962438;28;20129;-80
2022/07/06 03:53:38;;;;;;;11.52;3.15;;;13.50;99.90;;;;;;4994847;28;20050;-80
2022/07/06 03:58:48;;;;;;;7.85;2.47;;;13.50;99.90;;;;;;5000435;28;20050;-80
2022/07/06 04:01:14;;;;;;;11.65;3.08;;;13.50;99.90;;;;;;4999071;28;20061;-79
2022/07/06 04:03:40;;;;;;;11.48;2.92;;;13.50;99.90;;;;;;4996380;28;20043;-80
2022/07/06 04:06:05;;;;;;;11.13;2.75;;;13.60;99.90;;;;;;4994249;28;20039;-81
2022/07/06 04:08:31;;;;;;;9.35;2.45;;;13.60;99.90;;;;;;4994616;28;20038;-82
2022/07/06 04:10:57;;;;;;;7.85;2.53;;;13.60;99.90;;;;;;4995613;28;20046;-81
2022/07/06 04:13:25;;;;;;;8.57;2.70;;;13.60;99.90;;;;;;4978013;28;20096;-80
2022/07/06 04:15:51;;;;;;;9.15;2.20;;;13.70;99.90;;;;;;4993951;28;20486;-81
2022/07/06 04:18:17;;;;;;;14.50;2.88;;;13.70;99.90;;;;;;4994395;28;20042;-82
2022/07/06 04:20:43;;;;;;;8.60;2.40;;;13.70;99.90;;;;;;4993955;28;20150;-82
2022/07/06 04:23:08;;;;;;;11.45;2.25;;;13.70;99.90;;;;;;4994451;28;20050;-82
2022/07/06 04:25:34;;;;;;;11.05;2.60;;;13.80;99.90;;;;;;4994699;28;20053;-82
2022/07/06 04:28:00;;;;;;;8.93;2.40;;;13.70;99.90;;;;;;4993858;28;20042;-82
2022/07/06 04:30:26;;;;;;;9.27;2.35;;;13.80;99.90;;;;;;4994605;28;20057;-79
2022/07/06 04:32:52;;;;;;;8.95;1.92;;;13.90;99.90;;;;;;4994605;28;20090;-80
2022/07/06 04:35:18;;;;;;;6.78;2.20;;;14.00;99.90;;;;;;4995160;28;20039;-81
2022/07/06 04:37:45;;;;;;;7.72;2.20;;;14.00;99.90;;;;;;4994165;28;20054;-81
2022/07/06 04:40:12;;;;;;;9.73;2.10;;;14.10;99.90;;;;;;4993391;28;20483;-81
2022/07/06 04:42:38;;;;;;;9.48;1.83;;;14.10;99.90;;;;;;4995124;28;20094;-81
2022/07/06 04:45:04;;;;;;;11.27;1.93;;;14.20;99.90;;;;;;4994062;28;20069;-82
2022/07/06 04:47:30;;;;;;;10.52;2.10;;;14.20;99.90;;;;;;4995249;28;20054;-81
2022/07/06 04:49:56;;;;;;;8.27;1.95;;;14.30;99.90;;;;;;4993688;28;20152;-82
2022/07/06 04:52:22;;;;;;;11.15;2.28;;;14.40;99.90;;;;;;4994118;28;20047;-80
2022/07/06 04:54:48;;;;;;;10.02;2.03;;;14.40;99.90;;;;;;4978174;28;20050;-80
2022/07/06 04:57:14;;;;;;;12.65;1.98;;;14.50;99.90;;;;;;4993721;28;20439;-81
2022/07/06 04:59:40;;;;;;;7.80;1.92;;;14.60;99.90;;;;;;4993641;28;20053;-80
2022/07/06 05:02:06;;;;;;;6.22;1.95;;;14.70;99.90;;;;;;4994941;28;20046;-81
2022/07/06 05:04:32;;;;;;;9.25;1.77;;;14.70;99.90;;;;;;4994005;28;20398;-82
2022/07/06 05:06:58;;;;;;;12.27;2.40;;;14.70;99.90;;;;;;4995045;28;20451;-82
2022/07/06 05:09:24;;;;;;;7.78;1.70;;;14.70;99.90;;;;;;4978407;28;20046;-80
2022/07/06 05:11:50;;;;;;;7.32;1.88;;;14.70;99.90;;;;;;4963216;28;20090;-80
2022/07/06 05:14:15;;;;;;;8.25;1.92;;;14.70;99.90;;;;;;4997337;28;20069;-82
2022/07/06 05:16:41;;;;;;;10.80;2.03;;;14.70;99.90;;;;;;4982457;28;20078;-81
2022/07/06 05:19:12;;;;;;;7.70;2.05;;;14.60;99.90;;;;;;5000239;28;20094;-80
2022/07/06 05:21:38;;;;;;;9.73;2.05;;;14.60;99.90;;;;;;5000200;28;20054;-81
2022/07/06 05:24:06;;;;;;;9.18;2.08;;;14.60;99.90;;;;;;4998613;28;20386;-82
2022/07/06 05:26:31;;;;;;;8.93;1.85;;;14.70;99.90;;;;;;4984077;28;20257;-82
2022/07/06 05:28:57;;;;;;;8.57;2.30;;;14.70;99.90;;;;;;4981756;28;20117;-81
2022/07/06 05:31:24;;;;;;;10.00;1.90;;;14.70;99.90;;;;;;4999299;28;20082;-82
2022/07/06 05:33:50;;;;;;;13.20;2.55;;;14.70;99.90;;;;;;4997483;28;20076;-83
2022/07/06 05:36:16;;;;;;;20.58;2.35;;;14.70;99.90;;;;;;4995743;28;20050;-81
2022/07/06 05:38:42;;;;;;;9.23;1.73;;;14.80;99.90;;;;;;4995331;28;20470;-79
2022/07/06 05:41:07;;;;;;;8.93;1.65;;;14.90;99.90;;;;;;4997225;28;20070;-79
2022/07/06 05:43:37;;;;;;;12.25;2.00;;;15.00;99.90;;;;;;4998630;28;20054;-80
2022/07/06 05:46:04;;;;;;;11.98;1.80;;;15.00;99.90;;;;;;4999642;28;20058;-79
2022/07/06 05:51:14;;;;;;;4.60;1.30;;;14.90;99.90;;;;;;4999340;28;20122;-82
2022/07/06 05:53:40;;;;;;;18.23;1.60;;;15.00;99.90;;;;;;4998409;28;20058;-81
2022/07/06 05:56:06;;;;;;;7.80;1.10;;;15.00;99.90;;;;;;4998643;28;20489;-79
2022/07/06 05:58:31;;;;;;;7.57;0.80;;;15.10;99.90;;;;;;4981134;28;20054;-79
2022/07/06 06:00:57;;;;;;;4.22;0.80;;;15.10;99.90;;;;;;4999138;28;20038;-80
2022/07/06 06:03:23;;;;;;;7.75;0.82;;;15.20;99.90;;;;;;4981232;28;20038;-81
2022/07/06 06:05:49;;;;;;;6.68;0.65;;;15.20;99.90;;;;;;4997941;28;20074;-80
2022/07/06 06:08:15;;;;;;;7.97;0.70;;;15.20;99.90;;;;;;4965064;28;20170;-80
2022/07/06 06:10:41;;;;;;;2.65;0.52;;;15.40;99.90;;;;;;5001261;28;20139;-80
2022/07/06 06:13:06;;;;;;;10.80;0.80;;;15.40;99.90;;;;;;4999476;28;20046;-80
2022/07/06 06:15:32;;;;;;;7.25;0.93;;;15.60;99.90;;;;;;4996919;28;20065;-78
2022/07/06 06:17:58;;;;;;;7.57;0.60;;;15.80;99.90;;;;;;4994486;28;20042;-81
2022/07/06 06:20:24;;;;;;;3.05;0.55;;;16.00;99.90;;;;;;4992923;28;20050;-81
2022/07/06 06:22:52;;;;;;;5.07;0.45;;;16.20;99.90;;;;;;4992419;28;20050;-80
2022/07/06 06:25:20;;;;;;;6.90;0.50;;;16.30;99.90;;;;;;4992108;28;20057;-81
2022/07/06 06:27:46;;;;;;;8.13;0.50;;;16.40;99.90;;;;;;4993700;28;20050;-79
2022/07/06 06:30:13;;;;;;;5.05;0.40;;;16.30;99.90;;;;;;4993031;28;20475;-81
2022/07/06 06:32:39;;;;;;;5.50;0.57;;;16.30;99.90;;;;;;4991969;28;20062;-80
2022/07/06 06:35:06;;;;;;;5.13;0.40;;;16.40;99.90;;;;;;4991642;28;20050;-81
2022/07/06 06:37:34;;;;;;;5.97;0.40;;;16.40;99.90;;;;;;4993279;28;20050;-81
2022/07/06 06:40:00;;;;;;;6.20;0.60;;;16.50;99.90;;;;;;4960140;28;20531;-79
2022/07/06 06:42:26;;;;;;;6.38;0.40;;;16.50;99.90;;;;;;4992264;28;20133;-79
2022/07/06 06:44:52;;;;;;;6.63;0.63;;;16.70;99.90;;;;;;4991504;28;20096;-80
2022/07/06 06:47:19;;;;;;;4.15;0.63;;;16.80;99.90;;;;;;4993256;28;20050;-81
2022/07/06 06:49:44;;;;;;;;;;;16.90;99.90;;;;;;4976886;28;20105;-81
2022/07/06 06:52:10;;;;;;;8.17;0.77;;;16.90;99.90;;;;;;4994174;28;19922;-82
2022/07/06 06:54:36;;;;;;;9.27;0.70;;;16.80;99.90;;;;;;4996367;28;20335;-81
2022/07/06 06:57:01;;;;;;;9.70;0.50;;;17.00;99.90;;;;;;4997356;28;20082;-82
2022/07/06 06:59:27;;;;;;;5.03;0.60;;;17.00;99.90;;;;;;4996942;28;20050;-78
2022/07/06 07:01:53;;;;;;;7.07;0.50;;;16.90;99.90;;;;;;4997060;28;20049;-80
2022/07/06 07:04:18;;;;;;;6.28;0.50;;;17.00;99.70;;;;;;4996803;28;20046;-81
2022/07/06 07:06:44;;;;;;;6.32;0.50;;;17.20;99.90;;;;;;4997150;28;20074;-81
2022/07/06 07:09:10;;;;;;;6.97;0.30;;;17.20;99.60;;;;;;4997435;28;20510;-80
2022/07/06 07:11:36;;;;;;;5.57;0.60;;;17.30;99.90;;;;;;4997639;28;20102;-79
2022/07/06 07:14:02;;;;;;;4.50;0.50;;;17.10;98.90;;;;;;4996861;28;20050;-78
2022/07/06 07:16:28;;;;;;;5.03;0.50;;;16.90;99.20;;;;;;4996945;28;20125;-80
2022/07/06 07:18:54;;;;;;;5.03;0.70;;;16.80;99.60;;;;;;4997691;28;20152;-83
2022/07/06 07:21:19;;;;;;;7.67;0.60;;;17.10;99.80;;;;;;4998703;28;20069;-82
2022/07/06 07:23:45;;;;;;;6.28;0.45;;;17.00;99.90;;;;;;4985084;28;20070;-81
2022/07/06 07:26:11;;;;;;;5.33;0.60;;;17.00;99.90;;;;;;5004814;28;20050;-81
2022/07/06 07:28:37;;;;;;;5.80;0.40;;;16.90;99.90;;;;;;5004283;28;20081;-81
2022/07/06 07:31:03;;;;;;;4.05;0.40;;;16.90;99.30;;;;;;5002543;28;20030;-81
2022/07/06 07:33:29;;;;;;;5.32;0.50;;;16.90;99.10;;;;;;5005113;28;20057;-80
2022/07/06 07:35:55;;;;;;;9.40;0.60;;;17.10;99.60;;;;;;4986607;28;20375;-84
2022/07/06 07:38:20;;;;;;;9.43;0.52;;;17.20;99.40;;;;;;4985356;28;20046;-79
2022/07/06 07:40:46;;;;;;;3.17;0.30;;;17.20;98.70;;;;;;5001763;28;20050;-80
2022/07/06 07:43:12;;;;;;;3.45;0.30;;;17.20;98.50;;;;;;5002777;28;20130;-79
2022/07/06 07:45:38;;;;;;;7.68;0.75;;;17.30;99.00;;;;;;5018999;28;20076;-81
2022/07/06 07:48:04;;;;;;;4.93;0.40;;;17.40;98.80;;;;;;5025497;28;20105;-80
2022/07/06 07:50:30;;;;;;;3.33;0.30;;;17.30;98.50;;;;;;5025064;28;20067;-80
2022/07/06 07:52:56;;;;;;;3.08;0.40;;;17.30;98.50;;;;;;5018105;28;20046;-81
2022/07/06 07:55:21;;;;;;;3.08;0.30;;;17.10;98.10;;;;;;5019947;28;20129;-80
2022/07/06 07:57:47;;;;;;;8.93;0.30;;;17.20;98.60;;;;;;4974335;28;20103;-80
2022/07/06 08:00:13;;;;;;;3.95;0.43;;;17.40;98.50;;;;;;5005606;28;20165;-80
2022/07/06 08:02:39;;;;;;;6.70;0.40;;;17.60;98.60;;;;;;4986516;28;20046;-80
2022/07/06 08:05:05;;;;;;;4.20;0.50;;;17.70;98.30;;;;;;5003136;28;20070;-80
2022/07/06 08:07:31;;;;;;;5.38;0.45;;;17.90;97.80;;;;;;5002015;28;20073;-79
2022/07/06 08:09:57;;;;;;;5.67;0.47;;;18.00;97.10;;;;;;5002492;28;20481;-79
2022/07/06 08:12:23;;;;;;;5.97;0.43;;;18.10;96.50;;;;;;4985061;28;20093;-79
2022/07/06 08:14:49;;;;;;;5.03;0.50;;;18.20;96.80;;;;;;5000268;28;20054;-78
2022/07/06 08:17:14;;;;;;;2.03;0.32;;;18.30;97.00;;;;;;5016188;28;20049;-79
2022/07/06 08:19:40;;;;;;;5.75;0.40;;;18.40;96.20;;;;;;5016378;28;20085;-80
2022/07/06 08:22:06;;;;;;;3.90;0.50;;;18.60;96.60;;;;;;5015935;28;20419;-81
2022/07/06 08:24:36;;;;;;;4.90;0.40;;;18.50;96.00;;;;;;4983940;28;20053;-81
2022/07/06 08:27:03;;;;;;;3.42;0.30;;;18.60;96.50;;;;;;4967352;28;20046;-81
2022/07/06 08:29:29;;;;;;;8.93;0.50;;;18.70;95.90;;;;;;5003457;28;20061;-79
2022/07/06 08:31:56;;;;;;;3.90;0.30;;;18.60;96.00;;;;;;4971836;28;20046;-81
2022/07/06 08:34:22;;;;;;;5.10;0.40;;;18.50;95.70;;;;;;5022325;28;20056;-80
2022/07/06 08:36:48;;;;;;;8.07;0.52;;;18.50;95.80;;;;;;5020746;28;20041;-81
2022/07/06 08:39:14;;;;;;;4.80;0.60;;;18.50;95.40;;;;;;5001014;28;20125;-80
2022/07/06 08:41:43;;;;;;;2.43;0.30;;;18.50;95.50;;;;;;5021200;28;20050;-79
2022/07/06 08:44:09;;;;;;;7.50;0.40;;;18.70;95.70;;;;;;5017512;28;20041;-82
2022/07/06 08:46:38;;;;;;;5.50;0.50;;;18.60;95.40;;;;;;5019413;28;20133;-82
2022/07/06 08:49:05;;;;;;;4.75;0.50;;;18.60;95.30;;;;;;4999816;28;20060;-80
2022/07/06 08:51:31;;;;;;;4.60;0.30;;;18.60;95.50;;;;;;4999101;28;20058;-80
2022/07/06 08:53:58;;;;;;;7.67;0.40;;;18.80;95.40;;;;;;4998641;28;20121;-81
2022/07/06 08:56:24;;;;;;;5.63;0.30;;;18.50;94.80;;;;;;5017051;28;20050;-80
2022/07/06 08:58:50;;;;;;;3.92;0.40;;;18.50;94.40;;;;;;5003553;28;20053;-82
2022/07/06 09:01:17;;;;;;;3.30;0.40;;;18.80;94.90;;;;;;5022185;28;20082;-79
2022/07/06 09:03:46;;;;;;;7.57;0.38;;;18.50;94.20;;;;;;5005355;28;20041;-82
2022/07/06 09:06:16;;;;;;;3.13;0.30;;;18.80;94.80;;;;;;5006129;28;20132;-81
2022/07/06 09:08:43;;;;;;;4.28;0.40;;;19.20;94.70;;;;;;5005475;28;20049;-80
2022/07/06 09:11:09;;;;;;;5.88;0.60;;;19.40;94.30;;;;;;5020321;28;20419;-80
2022/07/06 09:13:35;;;;;;;5.28;0.40;;;19.50;94.30;;;;;;5019818;28;20046;-81
2022/07/06 09:16:15;;;;;;;4.17;0.40;;;19.40;94.50;;;;;;5001075;28;20471;-81
2022/07/06 09:18:44;;;;;;;8.13;0.60;;;19.00;94.40;;;;;;5020327;28;20053;-81
2022/07/06 09:21:11;;;;;;;4.63;0.40;;;18.80;94.80;;;;;;5018632;28;20423;-81
2022/07/06 09:23:37;;;;;;;3.90;0.40;;;18.60;95.20;;;;;;5019100;28;20112;-80
2022/07/06 09:26:05;;;;;;;6.70;0.70;;;18.50;95.40;;;;;;4999269;28;20058;-80
2022/07/06 09:28:44;;;;;;;7.95;0.40;;;18.30;95.00;;;;;;5015640;28;20480;-81
2022/07/06 09:31:11;;;;;;;2.85;0.30;;;18.10;95.10;;;;;;4998319;28;20137;-79
2022/07/06 09:33:37;;;;;;;4.70;0.40;;;18.30;95.20;;;;;;5017276;28;20081;-82
2022/07/06 09:36:05;;;;;;;3.57;0.40;;;18.50;94.70;;;;;;5001050;28;20514;-81
2022/07/06 09:38:31;;;;;;;5.93;0.50;;;18.90;94.60;;;;;;5000634;28;20046;-82
2022/07/06 09:40:57;;;;;;;5.07;0.68;;;19.30;93.90;;;;;;5018061;28;20054;-81
2022/07/06 09:43:24;;;;;;;5.03;0.45;;;19.60;92.60;;;;;;4971534;28;20053;-80
2022/07/06 09:45:55;;;;;;;3.17;0.30;;;19.40;91.20;;;;;;4942962;28;1309806;-82
2022/07/06 09:48:22;;;;;;;5.57;0.30;;;19.40;92.10;;;;;;5015912;28;20065;-83
2022/07/06 09:50:59;;;;;;;4.15;0.30;;;19.50;92.10;;;;;;5014488;28;20058;-82
2022/07/06 09:53:26;;;;;;;2.00;0.30;;;19.30;93.90;;;;;;5014522;28;20089;-78
2022/07/06 09:55:58;;;;;;;3.35;0.30;;;18.20;91.70;;;;;;5014088;28;20049;-80
2022/07/06 09:58:24;;;;;;;3.90;0.30;;;19.40;91.30;;;;;;4996229;28;20505;-81
2022/07/06 10:00:51;;;;;;;3.20;0.20;;;19.40;90.90;;;;;;4996147;28;20058;-79
2022/07/06 10:03:17;;;;;;;1.70;0.30;;;19.50;90.70;;;;;;5014431;28;20049;-80
2022/07/06 10:05:47;;;;;;;3.38;0.30;;;19.80;91.20;;;;;;5014194;28;20046;-79
2022/07/06 10:08:14;;;;;;;4.63;0.40;;;20.30;88.90;;;;;;5000719;28;20048;-80
2022/07/06 10:10:41;;;;;;;3.65;0.30;;;19.90;89.40;;;;;;5015620;28;20053;-80
2022/07/06 10:13:08;;;;;;;3.72;0.22;;;20.20;89.90;;;;;;4997650;28;20451;-81
2022/07/06 10:15:36;;;;;;;6.57;0.25;;;20.00;87.00;;;;;;5014928;28;20049;-81
2022/07/06 10:18:10;;;;;;;3.40;0.20;;;19.80;87.60;;;;;;5013149;28;20405;-81
2022/07/06 10:20:38;;;;;;;3.88;0.30;;;20.00;88.90;;;;;;4995994;28;20077;-81
2022/07/06 10:23:06;;;;;;;5.30;0.40;;;19.70;85.30;;;;;;4995402;28;20089;-80
2022/07/06 10:25:33;;;;;;;3.63;0.30;;;19.80;87.70;;;;;;4978442;28;20046;-83
2022/07/06 10:28:00;;;;;;;1.92;0.43;;;20.00;89.90;;;;;;4995081;28;20046;-80
2022/07/06 10:30:28;;;;;;;5.43;0.30;;;20.30;90.40;;;;;;5013036;28;20085;-81
2022/07/06 10:32:56;;;;;;;3.90;0.30;;;20.40;90.50;;;;;;4995251;28;20049;-83
2022/07/06 10:35:21;;;;;;;6.75;0.40;;;20.80;89.70;;;;;;4995193;28;20046;-81
2022/07/06 10:38:07;;;;;;;5.20;0.50;;;21.00;88.40;;;;;;4995326;28;20042;-81
2022/07/06 10:43:22;;;;;;;11.20;0.30;;;20.90;88.10;;;;;;5013753;28;20058;-80
2022/07/06 10:45:48;;;;;;;2.50;0.40;;;21.00;88.40;;;;;;4963679;28;20080;-80
2022/07/06 10:48:17;;;;;;;3.60;0.30;;;20.80;88.30;;;;;;4980268;28;20530;-82
2022/07/06 10:50:49;;;;;;;3.28;0.30;;;20.70;88.50;;;;;;4999714;28;20073;-79
2022/07/06 10:53:17;;;;;;;2.78;0.25;;;20.50;89.10;;;;;;5019815;28;20085;-80
2022/07/06 10:55:50;;;;;;;1.33;0.20;;;20.50;89.20;;;;;;4986524;28;20583;-82
2022/07/06 10:58:39;;;;;;;4.22;0.40;;;20.50;89.00;;;;;;5018653;28;20053;-81
2022/07/06 11:01:06;;;;;;;5.18;0.30;;;20.20;88.10;;;;;;5002115;28;20537;-79
2022/07/06 11:03:37;;;;;;;3.10;0.30;;;20.30;88.80;;;;;;4999616;28;20053;-81
2022/07/06 11:06:09;;;;;;;4.50;0.30;;;20.20;88.10;;;;;;5004497;28;20101;-82
2022/07/06 11:08:57;;;;;;;2.70;0.30;;;20.50;86.70;;;;;;5019090;28;20054;-80
2022/07/06 11:11:37;;;;;;;10.40;2.58;;;20.40;84.60;;;;;;5001680;28;20148;-82
2022/07/06 11:14:21;;;;;;;2.45;0.40;;;20.50;86.00;;;;;;4997738;28;20386;-78
2022/07/06 11:16:47;;;;;;;3.42;0.20;;;20.70;86.60;;;;;;4999318;28;20075;-81
2022/07/06 11:19:15;;;;;;;2.77;0.30;;;20.90;86.80;;;;;;5005385;28;20123;-82
2022/07/06 11:21:58;;;;;;;4.25;0.30;;;21.00;84.70;;;;;;5006340;28;20048;-83
2022/07/06 11:24:29;;;;;;;3.72;0.38;;;21.10;84.70;;;;;;5002754;28;20365;-81
2022/07/06 11:26:56;;;;;;;5.10;0.40;;;21.10;85.10;;;;;;5013312;28;20073;-82
2022/07/06 11:29:24;;;;;;;4.70;0.40;;;20.90;85.40;;;;;;4999423;28;20146;-81
2022/07/06 11:31:55;;;;;;;4.70;0.30;;;20.70;87.20;;;;;;5006448;28;20045;-83
2022/07/06 11:34:26;;;;;;;5.15;0.30;;;20.80;88.10;;;;;;5005238;28;20042;-81
2022/07/06 11:36:59;;;;;;;4.68;0.65;;;20.90;87.30;;;;;;5001715;28;20041;-82
2022/07/06 11:39:29;;;;;;;3.50;0.45;;;20.90;86.40;;;;;;4999747;28;20188;-82
2022/07/06 11:41:57;;;;;;;5.60;0.40;;;21.10;86.30;;;;;;4983611;28;20057;-82
2022/07/06 11:44:23;;;;;;;2.55;0.30;;;21.10;85.70;;;;;;5016704;28;20057;-82
2022/07/06 11:46:49;;;;;;;7.80;0.70;;;20.90;86.50;;;;;;4982212;28;20060;-82
2022/07/06 11:49:16;;;;;;;6.35;0.40;;;21.10;85.80;;;;;;5015827;28;20129;-81
2022/07/06 11:51:42;;;;;;;4.13;0.45;;;21.20;86.60;;;;;;4998766;28;20080;-83
2022/07/06 11:54:13;;;;;;;3.80;0.30;;;21.30;85.40;;;;;;4967041;28;20068;-83
2022/07/06 11:57:07;;;;;;;4.03;0.40;;;21.40;85.40;;;;;;5015665;28;20482;-82
2022/07/06 11:59:35;;;;;;;3.28;0.40;;;21.30;85.80;;;;;;4997048;28;20153;-83
2022/07/06 12:02:04;;;;;;;3.40;0.40;;;21.30;86.50;;;;;;5015702;28;20474;-82
2022/07/06 12:04:32;;;;;;;2.35;0.20;;;21.00;85.90;;;;;;4982659;28;20049;-84
2022/07/06 12:07:03;;;;;;;3.92;0.30;;;21.20;85.90;;;;;;4998206;28;20101;-82
2022/07/06 12:09:31;;;;;;;6.03;0.70;;;21.20;86.20;;;;;;5016115;28;20399;-82
2022/07/06 12:11:56;;;;;;;3.53;0.40;;;21.40;85.90;;;;;;4999209;28;20042;-82
2022/07/06 12:14:22;;;;;;;2.87;0.40;;;21.40;86.10;;;;;;4982277;28;20050;-80
2022/07/06 12:16:50;;;;;;;3.73;0.40;;;21.70;84.90;;;;;;4998380;28;20038;-84
2022/07/06 12:19:16;;;;;;;2.92;0.30;;;21.60;83.70;;;;;;4998689;28;20125;-82
2022/07/06 12:21:50;;;;;;;3.72;0.30;;;21.70;83.50;;;;;;5015805;28;20061;-80
2022/07/06 12:24:20;;;;;;;5.43;0.40;;;21.50;83.00;;;;;;4999774;28;20123;-82
2022/07/06 12:26:47;;;;;;;3.80;0.40;;;21.40;83.10;;;;;;4999477;28;20077;-83
2022/07/06 12:29:13;;;;;;;5.15;0.60;;;21.50;83.40;;;;;;4999285;28;20049;-79
2022/07/06 12:31:47;;;;;;;5.82;0.40;;;21.70;83.20;;;;;;4982660;28;20169;-80
2022/07/06 12:34:17;;;;;;;2.90;0.28;;;22.00;83.00;;;;;;5016166;28;20057;-81
2022/07/06 12:36:49;;;;;;;2.67;0.50;;;22.00;81.10;;;;;;5016286;28;20046;-80
2022/07/06 12:39:17;;;;;;;3.47;0.40;;;21.70;80.30;;;;;;4982483;28;20371;-82
2022/07/06 12:42:03;;;;;;;2.58;0.30;;;22.00;81.60;;;;;;4998763;28;20092;-80
2022/07/06 12:44:29;;;;;;;2.45;0.30;;;22.20;80.70;;;;;;4998253;28;20064;-82
2022/07/06 12:47:04;;;;;;;4.82;0.40;;;22.40;79.10;;;;;;4998022;28;20086;-81
2022/07/06 12:49:30;;;;;;;4.32;0.40;;;22.60;79.20;;;;;;5013857;28;20084;-81
2022/07/06 12:52:01;;;;;;;2.97;0.52;;;22.30;76.70;;;;;;4966022;28;20515;-80
2022/07/06 12:54:30;;;;;;;1.33;0.32;;;22.30;77.30;;;;;;5015824;28;20389;-81